Sedgwick Reserve, California Weather observations

Data are for 10 minute period ending at time listed.
 Day   Time   Solar   Ave.   Ave.  Ave.  Vector  Max.   Baro.   Total    
  of    of     Rad.   Air    Rel.  Wind   Wind   Wind  Press.  Precip.   
Year   Day            Temp.  Hum.  Speed  Dir.   Gust                    
2014   (PST)  Kw/m2    F      %     mph   deg.    mph    mb.     in.     
-------------------------------------------------------------------------
 272    2:00   0.00   48.8    95    1.4   329     3.0   971.5    0.00 
 272    2:10   0.00   49.2    95    1.8   328     4.5   971.5    0.00 
 272    2:20   0.00   49.4    95    1.4   347     3.8   971.5    0.00 
 272    2:30   0.00   48.5    95    1.1   294     3.8   971.5    0.00 
 272    2:40   0.00   48.7    95    1.0   272     2.6   971.5    0.00 
 272    2:50   0.00   48.4    95    0.6    19     2.2   971.5    0.00 
 272    3:00   0.00   48.2    95    1.3     4     2.7   971.4    0.00 
 272    3:10   0.00   47.9    95    1.9   334     3.1   971.4    0.00 
 272    3:20   0.00   48.3    96    1.6   284     2.9   971.3    0.00 
 272    3:30   0.00   48.4    95    0.7   323     3.1   971.3    0.00 
 272    3:40   0.00   48.1    95    0.3    36     1.8   971.3    0.00 
 272    3:50   0.00   47.6    96    0.9   322     2.0   971.4    0.00 
 272    4:00   0.00   47.5    96    2.9     2     4.0   971.4    0.00 
 272    4:10   0.00   47.3    96    1.4   333     3.4   971.4    0.00 
 272    4:20   0.00   47.7    96    1.2   342     3.2   971.4    0.00 
 272    4:30   0.00   47.6    96    1.0   256     2.6   971.5    0.00 
 272    4:40   0.00   47.4    96    1.7    23     4.5   971.5    0.00 
 272    4:50   0.00   47.4    96    2.9   346     4.4   971.6    0.00 
 272    5:00   0.00   47.4    96    1.3   271     2.5   971.6    0.00 
 272    5:10   0.00   47.8    96    0.3   309     1.5   971.6    0.00 
 272    5:20   0.00   47.8    96    0.2   261     1.2   971.6    0.00 
 272    5:30   0.00   47.2    96    1.2    25     4.2   971.7    0.00 
 272    5:40   0.00   47.3    96    2.1   352     4.8   971.9    0.00 
 272    5:50   0.00   47.7    97    2.0   331     4.1   971.9    0.00 
 272    6:00   0.00   47.8    97    2.2   348     4.2   972.0    0.00 
 272    6:10   0.01   47.7    97    2.2   322     4.5   972.1    0.00 
 272    6:20   0.02   47.9    97    0.9   274     2.6   972.3    0.00 
 272    6:30   0.06   48.7    97    1.0   268     2.4   972.4    0.00 
 272    6:40   0.08   49.0    96    1.1   344     3.8   972.4    0.00 
 272    6:50   0.12   49.8    96    1.0   295     4.1   972.4    0.00 
 272    7:00   0.12   51.2    94    1.1   100     2.5   972.5    0.00 
 272    7:10   0.17   52.6    92    0.3   245     1.2   972.5    0.00 
 272    7:20   0.20   54.6    91    0.9   130     2.8   972.5    0.00 
 272    7:30   0.23   56.0    88    1.8   122     3.3   972.4    0.00 
 272    7:40   0.27   57.3    84    1.2   130     3.1   972.4    0.00 
 272    7:50   0.30   58.7    81    1.0   215     2.4   972.5    0.00 
 272    8:00   0.34   59.4    79    1.2   218     2.0   972.4    0.00 
 272    8:10   0.37   60.8    76    0.8   156     2.5   972.4    0.00 
 272    8:20   0.40   63.6    69    0.5    30     2.4   972.5    0.00 
 272    8:30   0.43   65.2    65    1.0   150     2.4   972.6    0.00 
 272    8:40   0.46   65.8    61    1.9   124     3.6   972.8    0.00 
 272    8:50   0.49   66.8    58    1.9   199     5.3   972.9    0.00 
 272    9:00   0.51   67.5    60    4.3   212     7.9   973.0    0.00 
 272    9:10   0.54   67.6    59    5.7   215    11.3   973.0    0.00 
 272    9:20   0.57   68.0    59    5.1   243     8.4   973.0    0.00 
 272    9:30   0.59   69.5    56    7.2   211    11.4   972.9    0.00 
 272    9:40   0.61   69.4    55    6.2   213    13.1   973.0    0.00 
 272    9:50   0.64   70.6    53    6.4   248    11.4   972.9    0.00 
 272   10:00   0.66   71.4    50    5.5   251    10.0   972.7    0.00 
 272   10:10   0.68   72.7    49    3.7   261     8.9   972.6    0.00 
 272   10:20   0.70   73.7    47    3.9   236     8.5   972.5    0.00 
 272   10:30   0.72   75.6    43    4.2   208     8.5   972.4    0.00 
 272   10:40   0.73   76.0    45    7.6   122    11.9   972.3    0.00 
 272   10:50   0.74   76.1    44    6.5   143    11.5   972.2    0.00 
 272   11:00   0.75   76.4    44    6.9   156    10.4   972.0    0.00 
 272   11:10   0.73   76.9    42    6.6   183    12.7   971.9    0.00 
 272   11:20   0.77   77.5    40    4.0   218     9.6   971.8    0.00 
 272   11:30   0.78   78.3    39    5.1   194     9.6   971.7    0.00 
 272   11:40   0.79   78.5    38    5.4   228     9.6   971.5    0.00 
 272   11:50   0.79   79.5    37    4.9   197    11.8   971.4    0.00 
 272   12:00   0.79   80.8    36    4.1   151     7.8   971.3    0.00 
 272   12:10   0.79   81.5    35    4.5   215    10.6   971.1    0.00 
 272   12:20   0.78   81.0    34    4.7   263     9.1   970.9    0.00 
 272   12:30   0.78   83.3    30    4.2   298     8.9   970.8    0.00 
 272   12:40   0.77   83.3    28    4.3    21     8.6   970.6    0.00 
 272   12:50   0.77   83.3    28    3.2   357     9.6   970.4    0.00 
 272   13:00   0.75   83.4    28    3.5   290    11.6   970.2    0.00 
 272   13:10   0.74   83.9    30    9.2   307    21.3   970.0    0.00 
 272   13:20   0.72   81.8    36   11.5   285    21.1   970.0    0.00 
 272   13:30   0.71   81.6    36   12.4   285    19.6   970.0    0.00 
 272   13:40   0.69   80.7    38   12.8   279    19.8   969.9    0.00 
 272   13:50   0.67   81.1    37   11.7   282    19.5   969.8    0.00 
 272   14:00   0.65   80.4    39   12.3   280    19.1   969.7    0.00 
 272   14:10   0.63   81.7    37    9.6   294    15.9   969.7    0.00 
 272   14:20   0.61   81.6    37   12.4   275    19.5   969.5    0.00 
 272   14:30   0.59   80.3    38   13.3   270    21.4   969.4    0.00 
 272   14:40   0.56   81.1    37   13.0   278    20.1   969.4    0.00 
 272   14:50   0.53   80.7    38   13.6   277    20.4   969.4    0.00 
 272   15:00   0.51   80.4    38   12.6   274    21.8   969.4    0.00 
 272   15:10   0.47   79.1    41   14.8   280    21.9   969.4    0.00 
 272   15:20   0.45   78.4    42   13.7   281    22.2   969.3    0.00 
 272   15:30   0.41   78.2    43   14.2   280    21.0   969.3    0.00 
 272   15:40   0.38   77.4    44   14.4   272    21.0   969.4    0.00 
 272   15:50   0.35   76.7    46   14.6   275    22.1   969.3    0.00 
 272   16:00   0.32   76.7    45   13.4   272    20.9   969.3    0.00 
 272   16:10   0.28   76.7    45   13.4   278    19.6   969.4    0.00 
 272   16:20   0.25   75.7    47   13.4   272    20.5   969.4    0.00 
 272   16:30   0.22   75.2    47   13.7   272    21.6   969.4    0.00 
 272   16:40   0.19   75.5    47   12.1   276    17.6   969.5    0.00 
 272   16:50   0.15   75.4    47    9.3   282    14.9   969.7    0.00 
 272   17:00   0.12   75.1    48    8.8   281    15.2   969.8    0.00 
 272   17:10   0.09   74.5    49    7.7   272    11.5   969.9    0.00 
 272   17:20   0.07   73.9    50    6.1   271    10.7   969.9    0.00 
 272   17:30   0.03   73.0    51    6.9   261     9.4   970.0    0.00 
 272   17:40   0.01   72.1    52    5.0   273    10.2   970.0    0.00 
 272   17:50   0.00   71.6    52    5.1   280     9.9   970.0    0.00 
 272   18:00   0.00   70.8    54    2.8   219     5.4   970.1    0.00 
 272   18:10   0.00   69.6    56    1.9   160     4.7   970.1    0.00 
 272   18:20   0.00   67.8    62    3.4   110     5.7   970.2    0.00 
 272   18:30   0.00   65.5    68    3.7   128     7.2   970.2    0.00 
 272   18:40   0.00   64.3    71    3.4   123     5.7   970.2    0.00 
 272   18:50   0.00   63.4    74    3.9   141     6.7   970.2    0.00 
 272   19:00   0.00   62.5    76    2.9    69     4.7   970.3    0.00 
 272   19:10   0.00   62.0    77    0.9   312     2.7   970.3    0.00 
 272   19:20   0.00   61.7    77    1.6   259     4.0   970.3    0.00 
 272   19:30   0.00   60.4    77    2.3    36     5.5   970.4    0.00 
 272   19:40   0.00   59.6    79    1.6   232     4.5   970.4    0.00 
 272   19:50   0.00   59.3    79    0.9   176     2.6   970.5    0.00 
 272   20:00   0.00   58.7    80    2.0   316     4.5   970.7    0.00 
 272   20:10   0.00   58.5    81    1.2    13     3.4   970.8    0.00 
 272   20:20   0.00   57.4    82    1.7   254     4.8   970.8    0.00 
 272   20:30   0.00   57.1    83    2.5   354     5.4   970.9    0.00 
 272   20:40   0.00   57.1    82    2.7    16     5.9   971.0    0.00 
 272   20:50   0.00   56.5    83    1.8    17     4.2   971.1    0.00 
 272   21:00   0.00   55.7    84    2.0     4     4.7   971.2    0.00 
 272   21:10   0.00   55.1    85    2.2   324     9.3   971.2    0.00 
 272   21:20   0.00   55.2    85    2.1   314     4.7   971.2    0.00 
 272   21:30   0.00   55.0    85    2.5   322     6.7   971.3    0.00 
 272   21:40   0.00   54.2    86    3.6   308     7.2   971.4    0.00 
 272   21:50   0.00   54.7    87    2.3   343     4.7   971.5    0.00 
 272   22:00   0.00   54.6    86    3.2   351     7.1   971.6    0.00 
 272   22:10   0.00   54.9    86    3.8   358     6.5   971.6    0.00 
 272   22:20   0.00   53.8    86    3.2   344     5.8   971.6    0.00 
 272   22:30   0.00   53.3    88    2.4   316     5.5   971.4    0.00 
 272   22:40   0.00   53.5    88    2.0   278     5.8   971.4    0.00 
 272   22:50   0.00   53.8    88    2.5   345     5.7   971.3    0.00 
 272   23:00   0.00   53.9    88    1.9   293     4.6   971.3    0.00 
 272   23:10   0.00   53.5    89    3.1   286     6.1   971.3    0.00 
 272   23:20   0.00   54.0    87    2.2   350     4.8   971.2    0.00 
 272   23:30   0.00   53.9    88    3.4   325     5.4   971.4    0.00 
 272   23:40   0.00   53.8    88    3.2     3     7.2   971.4    0.00 
 272   23:50   0.00   52.9    88    2.6   348     4.5   971.3    0.00 
 273    0:00   0.00   52.8    88    2.3   315     4.4   971.4    0.00 
 273    0:10   0.00   52.8    89    2.2   310     5.0   971.4    0.00 
 273    0:20   0.00   52.3    89    2.6   267     4.3   971.3    0.00 
 273    0:30   0.00   51.7    89    2.2    14     7.9   971.3    0.00 
 273    0:40   0.00   52.2    90    2.0    10     4.9   971.2    0.00 
 273    0:50   0.00   52.0    89    2.0   299     3.7   971.2    0.00 
 273    1:00   0.00   51.3    90    1.9     4     4.5   971.2    0.00 
 273    1:10   0.00   51.3    91    1.9   319     4.8   971.1    0.00 
 273    1:20   0.00   51.1    91    1.2   330     2.9   971.1    0.00 
 273    1:30   0.00   51.0    91    2.2   301     4.5   971.0    0.00 
 273    1:40   0.00   50.6    92    2.8   338     5.0   970.9    0.00 
 273    1:50   0.00   50.4    92    2.4   341     5.7   970.8    0.00 

Return to Sedgwick Reserve graphs page.


Western Regional Climate Center,wrcc@dri.edu